x

9415102 - Martinez-amorco Ca (mzxc1) Weather Station

7:54am - Wed 16th Jan 2019 All times are PST. -8 hours from GMT.

  • Wind
    7mph, 13mph gusts
  • Sea Temp 51°f
  • Air Temp 58°f
  • Sea Pressure 1013.8mb
  • 9415102 - Martinez-amorco Ca
  • 9415102 - Martinez-amorco Ca

More Historic Weather Station data

Upgrade to MSW Pro to gain access to the past 30 days of data for over 8000 Wavebouys and Weather Stations around the globe.

Join

Comparision Forecast

View Surf forecast
   
Wed 01/16 7:54am 7 13 mph 1013.8mb 51f 58f
7:42am 7 13 mph 1013.5mb 51f 58f
7:36am 9 13 mph 1013.3mb 51f 57f
7:30am 14 20 mph 1013.1mb 51f 58f
7:24am 10 16 mph 1012.9mb 51f 57f
7:18am 14 20 mph 1012.9mb 51f 58f
7:12am 10 20 mph 1013mb 51f 57f
7:06am 10 17 mph 1013.1mb 51f 57f
6:54am 11 16 mph 1013.1mb 51f 57f
6:48am 11 17 mph 1013.1mb 51f 56f
6:42am 14 17 mph 1013.2mb 51f 56f
6:36am 9 13 mph 1013.4mb 51f 56f
6:30am 8 11 mph 1013.4mb 51f 55f
6:24am 8 15 mph 1013.4mb 51f 55f
6:18am 14 21 mph 1013.3mb 51f 55f
6:12am 10 14 mph 1013.3mb 51f 56f
6:06am 11 17 mph 1013.4mb 51f 56f
6:00am 5 9 mph 1013.3mb 51f 56f
5:54am 3 9 mph 1013.4mb 51f 56f
5:48am 10 15 mph 1013.4mb 51f 56f
5:42am 8 11 mph 1013.4mb 51f 56f
5:36am 10 13 mph 1013.4mb 51f 56f
5:30am 6 10 mph 1013.4mb 51f 56f
5:24am 7 11 mph 1013.3mb 51f 56f
5:18am 11 14 mph 1013.2mb 51f 56f
5:12am 6 11 mph 1013.1mb 51f 57f
5:06am 6 10 mph 1013mb 51f 57f
5:00am 9 10 mph 1013.1mb 51f 57f
4:54am 10 15 mph 1013mb 51f 57f
4:48am 9 10 mph 1012.9mb 51f 56f
4:42am 7 13 mph 1013mb 51f 56f
4:36am 10 15 mph 1012.9mb 51f 56f
4:30am 10 15 mph 1012.7mb 51f 56f
4:24am 2 8 mph 1012.7mb 51f 55f
4:18am 7 8 mph 1012.7mb - -
4:12am 3 8 mph 1012.7mb 51f 55f
4:06am 7 8 mph 1012.7mb 51f 55f
4:00am 6 9 mph 1012.8mb 51f 55f
3:54am 5 7 mph 1012.8mb 51f 55f
3:48am 5 6 mph 1013mb 51f 55f
3:42am 6 7 mph 1013mb 51f 55f
3:36am 6 8 mph 1013.1mb 51f 55f
3:30am 7 8 mph - - -
3:24am 6 8 mph 1013mb 51f 55f
3:18am 5 9 mph 1013.1mb 51f 55f
3:12am 6 8 mph 1013mb 51f 55f
3:06am 5 8 mph 1013mb 51f 55f
3:00am 6 8 mph 1013.1mb 51f 55f
2:54am 8 10 mph 1013.2mb 51f 55f
2:48am 7 9 mph 1013.1mb 51f 55f
2:42am 8 9 mph 1013.1mb 51f 55f
2:36am 6 9 mph 1013.2mb 51f 55f
2:30am 8 10 mph - - -
2:24am 7 9 mph 1013.1mb 51f 55f
2:18am 7 8 mph 1013mb 51f 55f
2:12am 6 7 mph 1013mb 51f 55f
2:06am 6 7 mph 1013.1mb 51f 55f
2:00am 6 8 mph 1013mb 51f 55f
1:54am 7 9 mph 1012.7mb 51f 55f
1:48am 8 10 mph 1012.6mb 51f 55f
1:42am 6 10 mph 1012.4mb 51f 55f
1:36am 7 14 mph 1012.3mb 51f 54f
1:30am 8 9 mph 1012.1mb 51f 55f
1:24am 6 8 mph 1012.3mb 51f 54f
1:18am 6 8 mph 1012.4mb 51f 54f
1:12am 7 9 mph 1012.5mb 51f 54f
1:06am 8 9 mph 1012.6mb 51f 54f
1:00am 7 9 mph 1012.5mb 51f 54f
12:54am 6 8 mph 1012.4mb 51f 54f
12:48am 7 9 mph 1012.3mb 51f 54f
12:42am 8 10 mph 1012.2mb 51f 54f
12:36am 8 13 mph 1012.2mb 51f 54f
12:30am 9 13 mph 1012.2mb 51f 55f
12:24am 9 13 mph 1012.2mb 51f 55f
12:18am 11 15 mph 1012.2mb 51f 55f
12:12am 10 11 mph 1012.2mb 51f 55f
12:06am 10 13 mph 1012.2mb 51f 55f
12:00am 8 10 mph 1012.2mb 51f -
Tue 01/15 11:54pm 7 9 mph 1012.3mb 51f 55f
11:48pm 8 13 mph 1012.2mb 51f -
11:42pm 9 11 mph 1012.2mb 51f 55f
11:36pm 7 10 mph 1012.3mb 51f 55f
11:24pm 9 11 mph 1012.1mb 51f 55f
11:18pm 8 10 mph - - -
11:12pm 7 9 mph 1012.2mb 51f 54f
11:06pm 6 8 mph 1012.3mb 51f 54f
11:00pm 6 7 mph 1012.1mb 51f 54f
10:54pm 6 8 mph 1012.1mb 51f 54f
10:48pm 7 10 mph 1012.1mb 51f 54f
10:42pm 8 10 mph 1011.9mb 51f 54f
10:36pm 8 10 mph 1011.7mb 51f 55f
10:30pm 7 8 mph 1011.6mb 51f 55f
10:24pm 7 9 mph 1011.5mb 51f 55f
10:18pm 5 8 mph 1011.4mb 51f 55f
10:12pm 6 7 mph 1011.4mb 51f 55f
10:06pm 7 9 mph 1011.2mb 51f 55f
10:00pm 8 10 mph 1011.1mb 51f 55f
9:54pm 7 14 mph 1010.9mb 51f 55f
9:48pm 10 14 mph 1010.7mb 51f 56f
9:42pm 11 18 mph 1010.5mb 51f 56f
9:36pm 7 16 mph 1010.3mb 51f 55f
9:30pm 14 18 mph 1010.1mb 51f 56f
9:24pm 11 15 mph 1010mb 51f 56f
9:18pm 9 14 mph 1009.8mb 51f 55f
9:06pm 13 18 mph 1009.4mb 51f 56f
9:00pm 13 17 mph 1009.3mb 51f 56f
8:54pm 8 15 mph 1009.1mb 51f 55f
8:48pm 11 17 mph 1008.8mb 51f 56f
8:42pm 9 16 mph - - -
8:36pm 10 16 mph 1008.6mb 51f 55f
8:30pm 14 20 mph 1008.4mb 51f 56f
8:24pm 13 21 mph 1008.1mb 51f 56f
8:18pm 14 18 mph 1007.9mb 51f 55f
8:12pm 2 5 mph 1007.8mb 51f 51f
8:06pm 3 5 mph 1007.5mb 51f 50f
8:00pm 3 5 mph 1007.3mb 51f 50f
7:54pm 3 5 mph 1007.1mb 51f 50f
7:48pm 3 5 mph 1007.1mb 51f -
7:42pm 3 5 mph 1006.9mb 51f 50f
7:36pm 3 5 mph 1006.8mb 51f 50f
7:30pm 3 5 mph 1006.6mb 51f 50f
7:24pm 3 7 mph 1006.5mb 51f 50f
7:18pm 6 6 mph 1006.3mb 50f 49f
7:12pm 3 5 mph 1006.3mb 50f 50f
7:06pm 3 5 mph 1006.3mb 50f 50f
7:00pm 5 6 mph 1006.2mb 50f 50f
6:54pm 3 5 mph 1006.2mb 50f 50f
6:48pm 5 6 mph 1006.1mb 50f 50f
6:36pm 2 2 mph 1005.9mb 50f 49f
6:30pm 1 3 mph 1005.9mb 50f 50f
6:24pm 2 6 mph 1005.9mb 50f 50f
6:18pm 7 11 mph 1005.8mb 50f 50f
6:12pm 7 10 mph 1005.7mb 50f 50f
6:06pm 7 9 mph 1005.7mb 50f 50f
6:00pm 6 8 mph 1005.7mb 50f 50f
5:54pm 7 10 mph 1005.8mb 50f 50f
5:48pm 6 9 mph 1005.8mb 50f 50f
5:42pm 7 10 mph - - -
5:36pm 8 10 mph 1005.7mb 51f 50f
5:30pm 7 11 mph 1005.7mb 51f 50f
5:24pm 9 13 mph 1005.7mb 51f 50f
5:18pm 10 13 mph 1005.7mb 51f 50f
5:12pm 11 14 mph 1005.6mb 51f 50f
5:06pm 10 11 mph 1005.7mb 51f 50f
5:00pm 7 9 mph - - -
4:54pm 6 8 mph 1005.6mb 51f 50f
4:48pm 6 10 mph 1005.6mb 51f 50f
4:42pm 5 7 mph 1005.6mb 51f 50f
4:36pm 6 11 mph 1005.7mb 51f 50f
4:30pm 6 10 mph 1005.6mb 51f 50f
4:24pm 9 11 mph 1005.5mb 51f 50f
4:18pm 8 11 mph 1005.5mb - -
4:06pm 9 13 mph 1005.7mb 51f 50f
4:00pm 9 16 mph 1005.8mb 51f 50f
3:54pm 11 15 mph 1006mb 51f 50f
3:48pm 14 15 mph 1006.1mb 51f 50f
3:42pm 9 13 mph 1006.3mb 51f 50f
3:36pm 9 14 mph 1006.4mb 51f 50f
3:30pm 7 11 mph 1006.5mb 51f 50f
3:24pm 8 13 mph 1006.6mb 51f 50f
3:18pm 7 11 mph - - -
3:12pm 7 9 mph 1006.7mb 51f 50f
3:06pm 8 13 mph 1006.7mb 51f 50f
3:00pm 8 16 mph 1006.7mb 51f 50f
2:54pm 8 16 mph 1006.7mb 51f 49f
2:48pm 8 16 mph 1006.8mb 51f 49f
2:42pm 8 13 mph 1006.7mb 51f 49f
2:36pm 8 11 mph 1006.7mb 51f 49f
2:30pm 9 14 mph 1006.7mb 51f -
2:24pm 7 14 mph 1006.7mb 51f 49f
2:18pm 7 13 mph 1006.8mb 51f 49f
2:06pm 8 14 mph 1006.9mb 51f 49f
2:00pm 7 11 mph 1007.1mb 51f 49f
1:48pm 7 9 mph 1007.4mb 51f 49f
1:42pm 7 9 mph 1007.5mb 51f 49f
1:36pm 7 10 mph 1007.5mb 51f 49f
1:30pm 8 10 mph 1007.6mb 51f 49f
1:24pm 9 13 mph 1007.7mb 51f 49f
1:18pm 8 13 mph 1007.8mb 51f 49f
1:12pm 8 14 mph 1007.9mb - -
1:06pm 7 10 mph 1008mb 51f 50f
1:00pm 8 10 mph 1008.2mb 51f 50f
12:54pm 6 10 mph 1008.4mb 51f 50f
12:48pm 7 10 mph 1008.5mb 51f 50f
12:42pm 7 9 mph 1008.5mb 51f 50f
12:36pm 8 13 mph 1008.6mb 51f 50f
12:30pm 8 14 mph 1008.7mb 51f 51f
12:24pm 8 13 mph 1008.9mb 51f 51f
12:18pm 8 13 mph 1009mb 51f 51f
12:06pm 7 10 mph 1009.3mb 51f 51f
12:00pm 8 11 mph 1009.4mb 51f 51f
11:54am 5 9 mph 1009.6mb 51f 51f
11:48am 6 11 mph 1009.7mb 51f 51f
11:42am 8 10 mph 1009.8mb 51f 51f
11:36am 8 11 mph 1009.9mb 51f 51f
11:30am 6 9 mph 1010.1mb 51f 51f
11:24am 5 10 mph 1010.2mb 51f 51f
11:18am 7 10 mph 1010.3mb 51f 51f
11:06am 6 8 mph 1010.5mb 51f 50f
11:00am 7 9 mph 1010.7mb 51f 50f
10:54am 7 9 mph 1010.8mb 51f 50f
10:48am 7 9 mph 1010.8mb 51f 50f
10:42am 6 8 mph 1010.9mb 51f 50f
10:36am 7 9 mph 1011mb 52f 50f
10:30am 7 9 mph 1011mb 52f 50f
10:24am 7 9 mph 1011mb 52f 50f
10:18am 7 8 mph 1011.1mb 52f 50f
10:12am 6 8 mph 1011mb 52f 50f
10:06am 6 8 mph 1011mb 52f 50f
10:00am 5 6 mph 1011mb - -
9:54am 5 6 mph 1011mb 52f 50f
9:48am 3 5 mph 1011mb 52f 50f
9:42am 2 5 mph 1011.1mb 52f 51f
9:36am 2 3 mph 1011mb 52f 51f
9:30am 2 5 mph 1011mb 52f 50f
9:24am 3 6 mph 1011mb 52f 50f
9:18am 3 5 mph 1010.9mb 52f 50f
9:12am 3 5 mph 1010.8mb 52f 50f
9:06am 3 5 mph 1010.7mb 52f 50f
9:00am 3 5 mph 1010.6mb - -
8:54am  -  1 mph 1010.6mb 52f 49f
8:48am  -  2 mph 1010.5mb 52f 49f
8:42am  -  2 mph 1010.5mb 52f 49f
8:36am 1 2 mph 1010.5mb 51f 50f
8:30am 1 2 mph 1010.5mb 51f 50f
8:24am 1 3 mph 1010.5mb 51f 50f
8:12am 5 7 mph 1010.4mb 51f 50f
8:06am 5 7 mph 1010.5mb 51f 50f
8:00am 7 8 mph 1010.5mb 51f 50f
7:54am 7 8 mph 1010.5mb 51f 49f
7:48am 8 9 mph 1010.5mb 51f 49f
7:42am 7 9 mph 1010.6mb 51f 49f
7:36am 8 8 mph 1010.6mb 51f 49f
7:30am 7 9 mph 1010.6mb 51f -
7:24am 7 8 mph 1010.6mb 51f 49f
7:18am 8 9 mph 1010.6mb 51f 49f
7:12am 8 9 mph 1010.6mb 50f 49f
7:06am 9 10 mph 1010.6mb 50f 50f
7:00am 8 11 mph 1010.5mb 50f 49f
6:54am 10 11 mph 1010.5mb 50f 49f
6:48am 8 11 mph 1010.5mb 50f 49f
6:42am 8 11 mph 1010.5mb 50f 49f
6:36am 8 10 mph 1010.4mb 50f 48f
6:30am 7 10 mph 1010.4mb - -
6:24am 8 11 mph 1010.5mb 50f 48f
6:18am 8 10 mph 1010.4mb - -
6:12am 7 9 mph 1010.4mb 50f 48f
6:06am 7 13 mph 1010.4mb - 48f
6:00am 9 11 mph 1010.4mb 50f 48f
5:54am 8 13 mph 1010.4mb 50f 48f
5:42am 9 13 mph 1010.4mb 50f 48f
5:36am 9 13 mph 1010.3mb 50f 48f
5:30am 9 11 mph 1010.4mb 50f 48f
5:24am 8 10 mph 1010.5mb 50f 48f
5:12am 8 10 mph 1010.4mb 50f 48f
5:06am 8 11 mph 1010.4mb 50f 48f
5:00am 8 10 mph 1010.4mb 50f 48f
4:54am 8 13 mph 1010.4mb 50f 48f
4:48am 8 13 mph 1010.4mb 50f 48f
4:42am 9 13 mph 1010.5mb 50f 48f
4:36am 9 11 mph 1010.5mb 50f 48f
4:30am 8 11 mph 1010.5mb 50f 49f
4:24am 8 11 mph 1010.7mb 50f 49f
4:18am 8 11 mph 1010.6mb 50f 49f
4:12am 9 10 mph 1010.7mb 50f 49f
4:06am 8 10 mph 1010.7mb 50f 49f
4:00am 8 10 mph 1010.7mb 50f 49f
3:54am 7 9 mph 1010.8mb 50f 49f
3:48am 7 9 mph 1010.8mb 50f 49f
3:42am 7 9 mph 1010.9mb 50f 48f
3:36am 6 9 mph 1011mb 50f 48f
3:30am 6 9 mph 1011mb 50f 48f
3:24am 6 9 mph 1011.1mb 50f 48f
3:18am 7 11 mph 1011.1mb 50f 48f
3:12am 8 10 mph 1011.2mb 50f 48f
3:06am 8 10 mph 1011.2mb 50f 48f
3:00am 8 10 mph 1011.2mb 50f 48f
2:54am 7 10 mph 1011.3mb 50f 48f
2:48am 7 9 mph 1011.4mb 50f 48f
2:42am 8 13 mph 1011.5mb 50f 48f
2:36am 8 10 mph 1011.4mb 50f 48f
2:30am 6 9 mph 1011.6mb 50f 48f
2:24am 7 9 mph 1011.5mb 50f 48f
2:18am 7 10 mph - - -
2:12am 6 8 mph 1011.6mb 50f 48f
2:06am 8 10 mph 1011.5mb 50f 48f
2:00am 7 10 mph 1011.5mb 50f 48f
1:54am 6 10 mph 1011.5mb 50f 48f
1:48am 8 10 mph 1011.4mb 50f 48f
1:42am 8 10 mph 1011.3mb 50f 48f
1:36am 8 10 mph 1011.3mb 50f 48f
1:30am 7 11 mph 1011.3mb 50f 49f
1:24am 8 11 mph 1011.3mb 50f 49f
1:18am 9 10 mph 1011.3mb 50f -
1:12am 8 9 mph 1011.3mb 50f 49f
1:06am 6 9 mph 1011.2mb 50f 49f
1:00am 7 9 mph 1011.2mb 50f 49f
12:42am 8 10 mph 1011.3mb 50f 49f
12:36am 8 10 mph 1011.4mb 50f 49f
12:30am 8 10 mph 1011.3mb 50f 49f
12:24am 8 9 mph 1011.4mb 50f 49f
12:18am 6 9 mph 1011.5mb 50f 49f
12:12am 8 10 mph 1011.5mb 50f 49f
12:06am 9 9 mph 1011.5mb 50f 49f
12:00am 6 9 mph 1011.7mb 50f 49f
Mon 01/14 11:54pm 6 9 mph - 50f 49f
11:48pm 7 8 mph - 50f 49f
11:42pm 6 8 mph 1011.8mb 50f 49f
11:36pm 5 7 mph 1011.8mb 50f 49f
11:30pm 5 6 mph 1011.8mb 50f 49f
11:24pm 3 5 mph 1011.8mb 50f 48f
11:18pm 2 3 mph 1011.8mb 50f 48f
11:12pm  -  3 mph 1011.9mb 50f 48f
11:06pm  -  5 mph 1011.9mb 50f 48f
11:00pm 3 7 mph 1011.9mb 50f 49f
10:54pm 6 7 mph 1011.8mb 50f 49f
10:48pm 5 6 mph 1011.8mb 50f 49f
10:42pm 5 7 mph 1011.9mb 50f 50f
10:36pm 6 7 mph 1011.8mb 50f 50f
10:30pm 6 8 mph 1011.8mb 50f 50f
10:24pm 6 8 mph 1011.9mb 50f 50f
10:18pm 1 2 mph 1011.9mb 50f 50f
10:12pm  -  3 mph 1011.8mb 50f 50f
10:06pm 2 5 mph 1011.8mb 50f 50f
10:00pm 2 3 mph - - -
9:54pm 2 5 mph 1011.7mb 50f 50f
9:48pm 5 6 mph 1011.7mb 50f 50f
9:42pm 5 6 mph 1011.8mb 50f 50f
9:36pm 3 5 mph 1011.8mb 50f 50f
9:30pm 2 5 mph 1011.8mb 50f 50f
9:24pm 3 6 mph 1011.8mb 50f 50f
9:18pm 2 6 mph 1011.7mb 50f 50f
9:12pm 3 6 mph 1011.7mb 50f 50f
9:06pm 3 5 mph 1011.7mb 50f 50f
9:00pm 5 7 mph 1011.6mb 50f 50f
8:54pm 6 8 mph 1011.6mb 50f 50f
8:48pm 5 6 mph 1011.6mb 50f 50f
8:42pm 5 6 mph 1011.6mb 50f 50f
8:36pm 5 5 mph 1011.7mb 50f 50f
8:24pm 6 7 mph 1011.7mb 50f 50f
8:12pm 3 6 mph 1011.7mb 50f 50f
8:06pm 5 6 mph 1011.7mb 50f 50f
8:00pm 5 6 mph 1011.8mb 50f 50f
7:54pm 5 6 mph 1011.8mb 50f 50f
7:42pm 5 6 mph 1011.8mb 51f 50f
7:36pm 5 7 mph 1011.8mb 51f 50f
7:30pm 6 8 mph 1011.8mb 51f 50f
7:24pm 5 6 mph 1011.8mb 51f 50f
7:18pm 5 7 mph 1011.8mb 51f 50f
7:12pm 6 7 mph 1011.7mb 51f 50f
7:06pm 5 7 mph 1011.7mb 51f 50f
7:00pm 6 8 mph 1011.7mb 51f 50f
6:54pm 6 8 mph 1011.7mb 51f 50f
6:48pm 6 8 mph 1011.7mb 51f 50f
6:36pm 6 8 mph 1011.7mb 51f 50f
6:30pm 6 7 mph 1011.6mb 51f 50f
6:24pm 6 8 mph 1011.7mb 51f 50f
6:18pm 6 8 mph 1011.7mb 51f 50f
6:12pm 6 9 mph 1011.8mb 50f 50f
6:06pm 6 9 mph 1011.7mb 50f 50f
6:00pm 7 11 mph 1011.7mb 50f 50f
5:54pm 7 10 mph 1011.7mb 50f 49f
5:48pm 8 10 mph 1011.6mb 50f 49f
5:42pm 7 9 mph 1011.7mb 50f 49f
5:36pm 7 11 mph 1011.6mb 50f 49f
5:30pm 7 11 mph - - -
5:24pm 8 10 mph 1011.5mb 50f 49f
5:18pm 7 9 mph 1011.5mb 50f 50f
5:12pm 6 10 mph 1011.4mb 50f 49f
5:06pm 6 9 mph 1011.3mb 50f 50f
5:00pm 7 10 mph 1011.3mb 50f 50f
4:54pm 7 9 mph 1011.2mb 50f 50f
4:48pm 7 9 mph 1011.2mb 50f 50f
4:42pm 7 10 mph 1011.2mb 50f 50f
4:36pm 8 10 mph 1011.1mb 50f 50f
4:30pm 8 10 mph 1011.1mb 50f 50f
4:24pm 8 11 mph 1011.1mb 50f 50f
4:18pm 9 11 mph 1011mb 50f 51f
4:12pm 9 13 mph 1011mb 50f 51f
4:06pm 9 11 mph 1011mb 50f 51f
4:00pm 10 13 mph 1011mb 50f 51f
3:54pm 9 10 mph 1011mb 50f 51f
3:48pm 8 11 mph 1011mb 51f 51f
3:42pm 8 10 mph 1011mb 51f 51f
3:36pm 8 10 mph 1011mb 51f 51f
3:24pm 9 11 mph 1011.1mb 51f 51f
3:18pm 9 13 mph 1011.1mb 51f 51f
3:12pm 9 10 mph 1011mb 51f 51f
3:06pm 8 11 mph 1011mb 51f 51f
3:00pm 9 11 mph - - 51f
2:54pm 7 10 mph 1010.9mb 51f 51f
2:48pm 7 8 mph 1011mb 51f 51f
2:42pm 6 9 mph 1011mb 51f 51f
2:36pm 6 7 mph 1011mb 51f 51f
2:30pm 5 7 mph - - -
2:24pm 6 9 mph 1011mb 51f 51f
2:18pm 7 9 mph - - -
2:12pm 7 9 mph 1010.7mb 51f 51f
2:06pm 7 11 mph 1010.7mb 51f 51f
2:00pm 7 11 mph - - -
1:54pm 8 11 mph 1010.6mb 51f 50f
1:48pm 8 10 mph 1010.7mb 51f 50f
1:42pm 7 9 mph 1010.8mb 51f 50f
1:36pm 6 8 mph 1010.9mb 51f 50f
1:30pm 6 10 mph 1010.9mb 51f 50f
1:24pm 6 8 mph 1010.9mb 51f 50f
1:18pm 7 10 mph 1011.1mb 51f 50f
1:12pm 7 9 mph 1011.3mb 51f 50f
1:06pm 6 9 mph 1011.4mb 51f 50f
1:00pm 6 9 mph 1011.4mb 51f 50f
12:54pm 7 10 mph 1011.4mb 51f 50f
12:48pm 6 9 mph 1011.4mb 51f 49f
12:42pm 8 13 mph 1011.5mb 51f 49f
12:36pm 9 13 mph 1011.6mb 51f 49f
12:30pm 7 13 mph - - -
12:24pm 9 14 mph 1011.7mb 51f 50f
12:18pm 9 13 mph 1011.8mb 51f 50f
12:12pm 8 13 mph 1011.8mb 51f 50f
12:06pm 9 16 mph 1011.8mb 51f 50f
12:00pm 10 16 mph 1011.9mb 51f -
11:54am 10 16 mph 1012mb 51f 51f
11:48am 9 14 mph 1012mb 51f 51f
11:42am 9 13 mph 1012mb 51f 51f
11:36am 7 15 mph 1012.2mb 51f 51f
11:30am 10 14 mph 1012.4mb 51f -
11:24am 10 14 mph 1012.5mb 51f 51f
11:18am 7 14 mph 1012.6mb 51f 51f
11:12am 6 11 mph 1012.8mb 51f 51f
11:06am 6 9 mph 1012.9mb 51f 51f
11:00am 6 9 mph 1012.9mb 51f 51f
10:54am 6 11 mph 1013mb 51f 51f
10:48am 3 8 mph 1013mb 51f 50f
10:42am 8 13 mph 1013mb 51f 50f
10:36am 7 11 mph 1013.4mb 51f 50f
10:30am 9 14 mph 1013.6mb 51f -
10:24am 9 11 mph 1013.9mb 51f 50f
10:18am 8 13 mph - - -
10:12am 9 14 mph 1013.7mb 51f 50f
10:06am 8 11 mph 1013.6mb 51f 50f
10:00am 9 11 mph 1013.6mb 51f -
9:54am 6 10 mph 1013.5mb 51f 49f
9:48am 5 13 mph 1013.3mb 51f 49f
9:42am 7 13 mph 1013.4mb 51f 49f
9:36am 9 14 mph 1013.4mb 51f 50f
9:30am 9 15 mph 1013.6mb 51f 50f
9:24am 8 10 mph 1013.6mb 51f 50f
9:12am 9 15 mph 1013.5mb 51f 50f
9:06am 10 15 mph 1013.5mb 51f 50f
9:00am 8 14 mph 1013.3mb - -
8:54am 10 15 mph 1013.2mb 51f 50f
8:48am 7 13 mph 1013.2mb 51f 50f
8:42am 8 13 mph 1013.2mb 51f 50f
8:36am 7 9 mph 1013.2mb 51f 51f
8:30am 9 14 mph 1013.4mb 51f 51f
8:24am 9 15 mph 1013.4mb 51f 50f
8:18am 7 14 mph 1013.3mb 51f 50f
8:12am 9 13 mph 1013.2mb 51f 50f
8:06am 7 10 mph 1013.1mb 51f 50f
8:00am 10 14 mph 1013.3mb 51f 50f
7:54am 5 9 mph 1013.2mb 51f 49f
7:48am 8 10 mph 1013.3mb 51f 49f
7:42am 6 10 mph 1013.3mb 51f 49f
7:36am 7 9 mph 1013.3mb 51f 48f
7:30am 3 9 mph 1013.3mb 51f 48f
7:24am 3 5 mph 1013.3mb 51f 48f
7:18am 2 6 mph 1013.1mb 51f 48f
7:12am 2 7 mph 1013.2mb 51f 47f
7:06am 3 3 mph 1013.2mb 51f 47f
7:00am 3 7 mph 1013.2mb - -
6:54am 7 9 mph 1013.1mb 51f 47f
6:42am 2 7 mph 1013.2mb 51f 47f
6:36am 3 10 mph 1013.1mb 51f 47f
6:30am 7 14 mph - - -
6:24am 5 11 mph 1013.4mb 51f 47f
6:18am 8 11 mph 1013.5mb 51f 47f
6:12am 7 11 mph 1013.4mb 50f 47f
6:06am 6 8 mph 1013.2mb 50f 46f
6:00am 6 9 mph 1013.1mb 50f 46f
5:54am 8 10 mph 1013.2mb 50f 46f
5:48am 5 9 mph 1013.2mb 50f 46f
5:42am 5 7 mph 1013.1mb 50f 46f
5:36am 3 6 mph 1013.2mb 50f 46f
5:30am 2 7 mph 1013mb 50f 46f
5:24am 6 8 mph 1013.1mb 50f 46f
5:18am 8 10 mph - - -
5:12am 8 10 mph 1013.1mb 50f 46f
5:06am 5 7 mph 1013.1mb 50f 46f
5:00am 7 8 mph 1013.1mb 50f 46f
4:54am 5 7 mph 1013.1mb 50f 46f
4:48am 5 6 mph 1013.2mb 50f 46f
4:42am 5 7 mph 1013.3mb 50f 46f
4:36am 6 7 mph 1013.3mb 50f 46f
4:30am 5 6 mph 1013.4mb 50f 47f
4:24am 3 6 mph 1013.5mb 50f 47f
4:18am 5 7 mph 1013.5mb 50f 47f
4:06am 3 6 mph 1013.6mb 50f 47f
4:00am 2 6 mph 1013.8mb 50f 47f
3:54am 5 6 mph 1013.8mb 50f 47f
3:48am 3 6 mph - - -
3:42am 3 8 mph 1013.9mb 50f 48f
3:36am 6 8 mph 1014mb 50f 48f
3:24am 6 9 mph 1014mb 50f 48f
3:18am 7 9 mph 1014.1mb 50f 49f
3:06am 5 7 mph 1014.2mb 50f 49f
3:00am 2 6 mph 1014.3mb 50f 49f
2:54am 3 7 mph 1014.3mb 50f 49f
2:48am 3 7 mph 1014.3mb 50f 49f
2:42am 5 7 mph 1014.2mb 50f 49f
2:36am 3 6 mph 1014.1mb 50f 48f
2:30am 5 5 mph 1014.1mb 50f 49f
2:24am 2 5 mph 1014.2mb 50f 48f
2:18am 3 5 mph 1014.1mb 50f 49f
2:06am 3 5 mph 1014.1mb 50f 49f
2:00am 3 5 mph 1014.1mb 50f 49f
1:54am 2 5 mph 1014mb 50f 49f
1:48am 2 6 mph 1014mb 50f 49f
1:42am 3 5 mph 1014mb 50f 49f
1:36am 3 5 mph 1014mb 50f 49f
1:30am 3 6 mph 1014.1mb 50f 49f
1:24am 2 3 mph 1014.1mb 50f 49f
1:18am 3 6 mph 1014.1mb 50f 49f
1:06am 5 6 mph 1014.1mb 50f 49f
1:00am 3 6 mph 1014mb 50f 49f
12:54am 5 6 mph 1014.1mb 50f 49f
12:48am 5 6 mph 1014.2mb 50f 49f
12:42am 3 5 mph 1014.2mb 50f 49f
12:36am 3 5 mph 1014.1mb 50f 49f
12:30am 3 5 mph 1014.2mb 50f 49f
12:24am 3 5 mph 1014.3mb 50f 49f
12:18am 3 5 mph 1014.4mb 50f 49f
12:06am 2 5 mph 1014.6mb 50f 50f
12:00am 1 3 mph 1014.7mb 50f 49f
Sun 01/13 11:54pm 2 3 mph 1014.7mb 50f 49f
11:48pm 2 6 mph 1014.7mb 50f 49f
11:42pm 1 5 mph 1014.9mb 50f 49f
11:36pm 5 5 mph 1015.1mb 50f 49f
11:30pm 1 3 mph 1015.2mb 50f 50f
11:24pm 1 3 mph 1015.2mb 50f 50f
11:18pm 2 6 mph 1015.3mb 50f 50f
11:12pm 5 6 mph 1015.4mb 50f 50f
11:06pm 3 5 mph 1015.4mb 50f 49f
11:00pm  -  2 mph 1015.4mb 50f 49f
10:54pm  -  1 mph 1015.4mb 50f 49f
10:48pm  -  3 mph 1015.5mb 50f 49f
10:42pm 2 5 mph 1015.5mb 50f 49f
10:36pm 3 5 mph 1015.6mb 51f 49f
10:30pm 3 5 mph - - -
10:24pm 3 5 mph 1015.6mb 51f 49f
10:18pm 2 3 mph - - -
10:06pm 2 3 mph 1015.7mb 51f 50f
10:00pm  -  2 mph 1015.7mb 51f 50f
9:54pm  -  2 mph 1015.7mb 51f 51f
9:48pm 2 2 mph 1015.7mb 51f 51f
9:36pm  -  2 mph 1015.6mb 51f 50f
9:30pm 2 3 mph 1015.6mb 51f 50f
9:24pm 2 3 mph 1015.5mb 51f 50f
9:18pm 2 3 mph - - -
9:12pm 2 5 mph 1015.5mb 51f 51f
9:06pm 5 6 mph 1015.5mb 51f 51f
9:00pm 5 6 mph 1015.4mb 51f -
8:54pm 5 7 mph 1015.4mb 51f 51f
8:48pm 6 6 mph 1015.3mb 51f 51f
8:42pm 3 6 mph 1015.3mb 51f 52f
8:36pm 3 5 mph 1015.3mb 51f 52f
8:30pm 3 5 mph 1015.4mb 51f 52f
8:24pm 2 2 mph 1015.3mb 51f 51f
8:18pm 1 2 mph 1015.3mb 51f 51f
8:12pm  -  3 mph 1015.3mb 51f 52f
8:06pm 3 5 mph 1015.2mb 51f 53f
8:00pm 2 5 mph 1015.2mb 51f 52f
7:54pm 5 5 mph 1015.1mb 51f 52f
7:48pm 3 5 mph - - -
7:42pm 5 6 mph 1015.1mb 51f 52f
7:36pm 2 5 mph 1015.1mb 51f 53f
7:30pm 3 5 mph 1015mb 51f 53f
7:24pm 3 5 mph 1015mb 51f 52f
7:18pm 5 6 mph 1015mb 51f 52f
7:12pm 6 6 mph 1015mb 51f 52f
7:06pm 3 6 mph 1015mb 51f 53f
7:00pm 2 5 mph 1015mb 51f 53f
6:54pm 3 6 mph 1015mb 51f 53f
6:48pm 3 7 mph 1015mb 51f 54f
6:42pm 5 7 mph 1015mb 51f 54f
6:36pm 6 8 mph 1015mb 51f 54f
6:30pm 5 6 mph 1014.9mb - -
6:24pm 6 7 mph 1014.9mb 51f 54f
6:18pm 6 7 mph 1014.9mb 51f 53f
6:12pm 5 7 mph 1014.9mb 51f 54f
6:06pm 3 7 mph 1014.9mb 51f 54f
6:00pm 3 9 mph 1014.9mb 51f 54f
5:54pm 5 8 mph 1014.9mb 51f 55f
5:48pm 6 7 mph 1014.9mb 51f 55f
5:42pm 6 9 mph 1014.9mb 51f 55f
5:36pm 7 9 mph 1014.8mb 51f 55f
5:30pm 7 9 mph 1014.8mb 51f 55f
5:24pm 6 8 mph 1014.9mb 51f 55f
5:18pm 6 9 mph 1014.9mb 51f 55f
5:12pm 5 6 mph 1014.9mb 51f 55f
5:06pm 5 6 mph 1014.8mb 51f 55f
5:00pm 3 5 mph 1014.8mb 51f 55f
4:54pm 3 6 mph 1014.9mb 51f 55f
4:48pm 5 7 mph 1014.9mb 51f 55f
4:42pm 6 8 mph 1014.9mb 51f 55f
4:36pm 7 9 mph 1014.9mb 51f 55f
4:30pm 7 9 mph 1014.8mb 51f 55f
4:24pm 6 7 mph 1014.9mb 51f 55f
4:18pm 5 9 mph 1014.9mb 51f 56f
4:12pm 5 8 mph 1015mb 51f 56f
4:06pm 7 10 mph 1015.1mb 51f 56f
4:00pm 6 9 mph - - -
3:54pm 6 9 mph 1015mb 51f 56f
3:48pm 6 9 mph 1015mb 51f 56f
3:42pm 7 9 mph 1015mb 51f 56f
3:36pm 6 8 mph 1015.1mb 51f 56f
3:24pm 6 9 mph 1015.1mb 51f 56f
3:18pm 7 9 mph 1015.2mb 51f 56f
3:12pm 5 8 mph 1015.2mb 51f 56f
3:06pm 6 9 mph 1015.2mb 51f 56f
3:00pm 6 9 mph 1015.2mb 51f 56f
2:54pm 6 9 mph 1015.2mb 51f 56f
2:48pm 6 10 mph 1015.2mb 51f 56f
2:42pm 6 9 mph - - -
2:36pm 8 11 mph 1015.2mb 51f 56f
2:30pm 8 14 mph 1015.1mb 51f 56f
2:24pm 7 10 mph 1015.1mb 51f 56f
2:18pm 9 13 mph 1015.1mb 51f 56f
2:12pm 8 11 mph 1015.2mb 51f 56f
2:06pm 7 11 mph 1015.2mb 51f 56f
2:00pm 7 11 mph 1015.2mb 51f 56f
1:54pm 6 10 mph 1015.3mb 51f 55f
1:48pm 7 11 mph 1015.3mb 51f 56f
1:42pm 8 15 mph 1015.3mb 51f 55f
1:36pm 7 11 mph 1015.3mb 51f 55f
1:30pm 7 11 mph 1015.4mb 51f 55f
1:24pm 8 14 mph 1015.4mb 51f 55f
1:18pm 8 11 mph 1015.5mb 51f 55f
1:06pm 8 14 mph 1015.6mb 51f 55f
1:00pm 8 11 mph 1015.6mb 51f 54f
12:54pm 7 10 mph 1015.8mb 51f 54f
12:48pm 8 11 mph 1015.8mb 51f 54f
12:36pm 8 14 mph 1016mb 51f 54f
12:30pm 9 11 mph 1016.1mb 51f 54f
12:24pm 8 11 mph 1016.1mb 51f 54f
12:18pm 7 10 mph 1016.3mb 51f 54f
12:12pm 6 13 mph 1016.5mb 51f 54f
12:06pm 6 10 mph 1016.6mb 51f 54f
12:00pm 6 10 mph 1016.7mb 51f 53f
11:54am 5 9 mph 1016.8mb 51f 53f
11:48am 6 13 mph 1016.8mb 51f 53f
11:42am 9 11 mph - - -
11:36am 9 14 mph 1017.1mb 51f 53f
11:30am 8 13 mph 1017.3mb 51f 53f
11:24am 8 13 mph 1017.4mb 51f 53f
11:18am 7 11 mph 1017.5mb 51f 53f
11:12am 6 13 mph 1017.7mb 51f 53f
11:06am 6 10 mph 1017.8mb 51f 53f
11:00am 8 13 mph 1018mb 51f 52f
10:54am 8 11 mph 1018mb 51f 51f
10:48am 8 13 mph 1018.1mb 51f 51f
10:42am 9 11 mph 1018.2mb 51f 51f
10:36am 6 9 mph 1018.3mb 51f 51f
10:30am 7 9 mph 1018.3mb 51f 50f
10:24am 6 9 mph 1018.4mb 51f 51f
10:18am 7 11 mph 1018.5mb 51f 51f
10:06am 8 13 mph 1018.5mb 51f 50f
10:00am 6 13 mph 1018.5mb 51f 51f
9:54am 7 14 mph 1018.5mb 51f 50f
9:48am 8 13 mph 1018.5mb 51f 50f
9:42am 7 10 mph 1018.4mb 51f 50f
9:36am 7 10 mph 1018.4mb 51f 49f
9:30am 7 13 mph 1018.4mb 51f 49f
9:24am 6 9 mph 1018.3mb 51f 49f
9:12am 6 9 mph 1018.2mb 51f 49f
9:06am 6 8 mph 1018.1mb 51f 49f
9:00am 6 10 mph 1018.1mb 51f 49f
8:54am 6 9 mph 1018.1mb 51f 49f
8:48am 5 9 mph 1018mb 51f 49f
8:42am 6 9 mph 1017.9mb - -
8:36am 6 13 mph 1017.8mb 51f 49f
8:30am 8 14 mph 1017.7mb 51f 48f
8:24am 7 10 mph 1017.7mb 51f 48f
8:18am 6 7 mph 1017.6mb 51f 48f
8:06am 7 10 mph 1017.5mb 51f 47f
8:00am 6 10 mph 1017.5mb 51f 47f
7:54am 5 7 mph 1017.5mb 51f 47f
7:48am 2 6 mph 1017.5mb 51f 46f
7:42am 5 8 mph 1017.5mb 51f 47f
7:36am 6 7 mph 1017.5mb 51f 46f
7:30am 3 6 mph 1017.5mb 51f 46f
7:24am 3 7 mph 1017.5mb 51f 46f
7:18am 6 9 mph 1017.5mb 51f 46f
7:06am 5 9 mph 1017.4mb 51f 47f
7:00am 6 9 mph 1017.4mb 51f 47f
6:54am 6 8 mph 1017.3mb 51f 47f
6:48am 5 7 mph 1017.3mb - -
6:42am 7 9 mph 1017.3mb 51f 47f
6:36am 6 9 mph 1017.3mb 51f 47f
6:30am 7 10 mph 1017.3mb 51f 47f
6:24am 8 10 mph 1017.3mb 51f 47f
6:18am 7 9 mph 1017.3mb 51f 47f
6:12am 6 8 mph 1017.3mb 51f 47f
6:06am 7 9 mph 1017.3mb 51f 47f
6:00am 7 8 mph 1017.4mb 51f 46f
5:54am 6 8 mph 1017.3mb 51f 46f
5:48am 5 6 mph 1017.3mb 51f 46f
5:42am 5 7 mph - - -
5:36am 5 6 mph 1017.1mb 51f 46f
5:30am 5 6 mph 1017.1mb 51f 46f
5:24am 5 6 mph 1017mb 51f 46f
5:18am 3 5 mph 1016.9mb 51f 46f
5:12am 3 6 mph 1016.9mb 50f 46f
5:06am 2 5 mph 1016.9mb 50f 46f
5:00am 3 5 mph 1017mb 50f 47f
4:54am 3 6 mph 1017mb 50f 47f
4:48am 3 5 mph 1016.9mb 50f 47f
4:42am 3 5 mph 1017.1mb 50f 47f
4:36am 2 3 mph 1017.1mb 50f 47f
4:30am 2 3 mph 1017mb 50f 47f
4:24am 3 5 mph 1017.1mb 50f 47f
4:18am 3 5 mph 1017.2mb 50f 47f
4:12am 3 5 mph 1017.2mb 50f 47f
4:06am 2 3 mph 1017.2mb 50f 47f
4:00am 3 5 mph 1017.2mb 50f 47f
3:54am 2 3 mph 1017.2mb 50f 47f
3:48am 3 5 mph 1017.2mb 50f 47f
3:42am 3 5 mph 1017.3mb 50f 47f
3:36am 3 5 mph 1017.4mb 50f 47f
3:30am 5 5 mph 1017.4mb 50f 47f
3:24am 2 6 mph 1017.4mb 50f 46f
3:18am 5 6 mph 1017.4mb 50f 47f
3:12am 5 6 mph - - -
3:06am 6 7 mph 1017.4mb 50f 47f
3:00am 6 7 mph 1017.5mb 50f 47f
2:54am 3 5 mph 1017.5mb 50f 46f
2:48am 3 3 mph 1017.5mb 50f 46f
2:42am 2 5 mph 1017.6mb 50f 46f
2:36am 5 6 mph 1017.6mb 50f 47f
2:30am 3 5 mph 1017.6mb 50f 48f
2:24am 3 5 mph 1017.7mb 50f 47f
2:18am 2 2 mph 1017.7mb 50f 47f
2:12am 2 3 mph 1017.8mb 50f 47f
2:06am 3 3 mph 1017.8mb 50f 47f
2:00am 3 3 mph 1017.8mb 50f 47f
1:54am 3 3 mph 1017.8mb 50f 48f
1:42am 3 3 mph 1017.8mb 50f 47f
1:36am  -  1 mph 1017.8mb 50f 47f
1:30am  -  1 mph 1017.8mb 50f 47f
1:24am  -  2 mph 1017.7mb 50f 48f
1:18am  -  1 mph 1017.7mb 50f 48f
1:12am  -  2 mph 1017.6mb 50f 48f
1:06am  -  2 mph 1017.6mb 50f 48f
1:00am 1 2 mph 1017.5mb 50f 49f
12:54am 1 1 mph 1017.4mb 50f 49f
12:48am 2 3 mph 1017.3mb 50f 49f
12:42am 3 5 mph 1017.2mb 50f 49f
12:36am 3 6 mph 1017.2mb 50f 49f
12:30am 2 3 mph 1017.2mb 50f 50f
12:24am 1 3 mph 1017.2mb 50f 50f
12:18am 2 3 mph 1017.1mb 50f 49f
12:12am 2 2 mph 1017mb 50f 49f
12:06am 2 3 mph 1017.1mb 50f 49f
12:00am 2 2 mph 1017.2mb 50f 49f
Sat 01/12 11:54pm 1 3 mph 1017.2mb 50f 49f
11:48pm 2 3 mph 1017.3mb 50f 49f
11:42pm  -  2 mph 1017.3mb 50f 49f
11:36pm 2 3 mph 1017.3mb 50f 49f
11:30pm 3 3 mph 1017.3mb 50f 49f
11:24pm 2 6 mph 1017.3mb 50f 49f
11:18pm 6 8 mph 1017.2mb 50f 49f
11:12pm 7 9 mph 1017.1mb 50f 49f
11:06pm 2 3 mph 1017.2mb 50f 49f
11:00pm  -  2 mph 1017.3mb 50f 49f
10:54pm  -  3 mph 1017.3mb 50f 49f
10:48pm 3 7 mph 1017.2mb 50f 49f
10:42pm 2 5 mph 1017.1mb 50f 49f
10:36pm 5 6 mph 1017.1mb 50f 49f
10:30pm 5 8 mph 1017.1mb 50f 49f
10:24pm 6 6 mph 1017.1mb 50f 49f
10:18pm 5 6 mph 1017.2mb 51f 49f
10:12pm 5 7 mph 1017.1mb 51f 50f
10:06pm 5 6 mph 1017.1mb 51f 50f
10:00pm 2 3 mph 1017.1mb 51f 50f
9:54pm 2 3 mph 1017.1mb 51f 49f
9:48pm  -  1 mph 1017.1mb 51f 50f
9:42pm  -  1 mph 1017mb 51f 50f
9:36pm  -  1 mph 1017mb 51f 50f
9:30pm  -  1 mph 1017mb - -
9:24pm  -  3 mph 1016.9mb 51f 50f
9:18pm 3 3 mph 1016.9mb 51f 50f
9:06pm 3 6 mph 1016.8mb 51f 51f
9:00pm 3 3 mph 1016.9mb 51f 51f
8:54pm 2 5 mph 1016.9mb 51f 51f
8:48pm 1 3 mph 1017mb 51f 50f
8:36pm 3 6 mph 1016.9mb 51f 51f
8:30pm 3 5 mph 1016.9mb 51f 51f
8:24pm 1 3 mph 1016.9mb 51f 51f
8:18pm 2 3 mph 1016.8mb 51f 51f
8:12pm 1 2 mph 1016.8mb 51f 51f
8:06pm 2 3 mph 1016.7mb 51f 52f
8:00pm  -  1 mph 1016.7mb 51f 51f
7:54pm  -  2 mph 1016.7mb 51f 52f
7:42pm 1 2 mph 1016.7mb 51f 52f
7:36pm 1 1 mph 1016.6mb 51f 52f
7:30pm 2 3 mph 1016.6mb 51f 51f
7:24pm 3 5 mph 1016.6mb 51f 52f
7:18pm 3 6 mph 1016.6mb 51f 51f
7:12pm 5 6 mph 1016.4mb 51f 52f
7:06pm 5 6 mph 1016.3mb 51f 52f
7:00pm 1 2 mph 1016.2mb 51f 52f
6:54pm 2 5 mph 1016.3mb 51f 52f
6:48pm 3 5 mph 1016.2mb 51f 51f
6:42pm 2 3 mph 1016.2mb 51f 52f
6:36pm 1 3 mph 1016.2mb 51f 51f
6:24pm 1 3 mph 1016mb 51f 51f
6:18pm 3 3 mph 1016mb 51f 52f
6:12pm 2 3 mph 1016mb 51f 52f
6:06pm 2 3 mph 1016mb 51f 52f
6:00pm 2 3 mph 1016mb 51f -
5:54pm 2 5 mph 1015.9mb 51f 54f
5:48pm 3 6 mph 1015.8mb 51f 53f
5:42pm 5 6 mph 1015.8mb 51f 53f
5:36pm 5 5 mph 1015.8mb 51f 54f
5:30pm 5 6 mph 1015.7mb 51f 54f
5:24pm 5 6 mph 1015.6mb 51f 54f
5:18pm 3 6 mph 1015.6mb 51f 54f
5:12pm 5 7 mph 1015.5mb 51f 55f
5:06pm 7 9 mph 1015.6mb 51f 54f
5:00pm 2 5 mph 1015.5mb 51f 54f
4:54pm 3 5 mph 1015.3mb 51f 54f
4:48pm 5 6 mph 1015.2mb 51f 54f